Time;durP1;ratioP1;P1;durP2;ratioP2;P2;SDS_P1;SDS_P2;PMS_P1;PMS_P2;Temp;Humidity;BMP_temperature;BMP_pressure;BME280_temperature;BME280_humidity;BME280_pressure;Samples;Min_cycle;Max_cycle;Signal;HPM_P1;HPM_P2
2023/11/28 00:06:03;;;;;;;85.10;38.50;;;;;;;-2.56;86.03;96904.76;437478;1250;106874;-40
2023/11/28 00:16:10;;;;;;;92.60;43.80;;;;;;;-2.66;86.14;96905.78;437537;1250;121061;-40
2023/11/28 00:26:16;;;;;;;66.10;34.00;;;;;;;-2.75;86.23;96896.77;437410;1250;97943;-39
2023/11/28 00:36:22;;;;;;;59.30;29.30;;;;;;;-2.67;86.49;96892.80;437517;1250;108533;-38
2023/11/28 00:46:29;;;;;;;71.10;35.40;;;;;;;-2.64;86.66;96881.55;437277;1251;425628;-39
2023/11/28 00:56:35;;;;;;;72.40;35.00;;;;;;;-2.69;86.80;96865.48;437502;1250;96616;-39
2023/11/28 01:06:42;;;;;;;60.20;30.40;;;;;;;-2.71;86.65;96835.04;437549;1253;110606;-39
2023/11/28 01:16:50;;;;;;;48.50;26.40;;;;;;;-2.68;86.91;96815.14;437308;1251;107992;-40
2023/11/28 01:26:57;;;;;;;76.30;32.80;;;;;;;-2.64;87.05;96804.89;437631;1250;97866;-39
2023/11/28 01:37:04;;;;;;;76.10;34.10;;;;;;;-2.70;87.20;96795.48;437415;1251;110813;-40
2023/11/28 01:47:11;;;;;;;55.90;27.50;;;;;;;-2.70;87.06;96788.15;437362;1248;108144;-40
2023/11/28 02:07:24;;;;;;;68.00;36.00;;;;;;;-2.60;87.39;96762.30;437479;1250;110352;-40
2023/11/28 02:17:31;;;;;;;52.50;24.90;;;;;;;-2.74;87.32;96753.13;437687;1247;107750;-38
2023/11/28 02:27:37;;;;;;;43.10;23.70;;;;;;;-2.76;87.41;96728.59;436359;1248;97895;-38
2023/11/28 02:37:44;;;;;;;66.30;31.50;;;;;;;-2.79;87.78;96715.61;436296;1254;110408;-39
2023/11/28 02:47:51;;;;;;;64.20;31.60;;;;;;;-2.94;87.86;96700.61;436250;1253;108569;-39
2023/11/28 02:58:00;;;;;;;39.60;22.80;;;;;;;-2.97;87.77;96692.29;436406;1247;97867;-38
2023/11/28 03:08:04;;;;;;;61.20;27.20;;;;;;;-2.95;88.08;96671.36;436291;1253;109069;-39
2023/11/28 03:18:11;;;;;;;61.80;29.00;;;;;;;-3.10;88.60;96663.34;436223;1248;108079;-40
2023/11/28 03:28:18;;;;;;;43.70;24.90;;;;;;;-3.15;88.68;96651.30;436205;1253;96628;-39
2023/11/28 03:38:25;;;;;;;61.20;30.20;;;;;;;-3.11;89.00;96636.41;436185;1261;109416;-38
2023/11/28 03:48:32;;;;;;;84.00;39.90;;;;;;;-3.19;89.53;96620.58;436167;1254;96574;-39
2023/11/28 03:58:39;;;;;;;54.20;30.10;;;;;;;-3.18;88.98;96601.73;436141;1248;96599;-40
2023/11/28 04:08:47;;;;;;;53.00;29.40;;;;;;;-3.09;89.11;96586.55;436141;1248;107411;-40
2023/11/28 04:18:55;;;;;;;75.50;34.90;;;;;;;-3.09;89.67;96578.95;436249;1254;97476;-39
2023/11/28 04:29:02;;;;;;;43.60;25.00;;;;;;;-3.13;89.71;96564.93;436330;1254;97105;-39
2023/11/28 04:39:11;;;;;;;39.50;22.90;;;;;;;-3.05;89.76;96555.79;436178;1248;110358;-39
2023/11/28 04:49:20;;;;;;;54.40;28.50;;;;;;;-3.05;89.97;96542.22;436183;1253;108392;-42
2023/11/28 04:59:27;;;;;;;44.90;24.90;;;;;;;-3.07;90.18;96540.27;436238;1253;97356;-39
2023/11/28 05:09:34;;;;;;;41.30;21.70;;;;;;;-2.99;90.13;96534.39;436172;1248;109497;-39
2023/11/28 05:19:41;;;;;;;57.90;29.10;;;;;;;-2.98;90.34;96519.44;436233;1254;109360;-39
2023/11/28 05:29:48;;;;;;;46.20;25.30;;;;;;;-2.97;90.52;96517.33;436279;1253;96613;-39
2023/11/28 05:39:53;;;;;;;39.10;23.10;;;;;;;-2.91;90.52;96517.21;436321;1248;110118;-39
2023/11/28 05:50:01;;;;;;;57.50;31.10;;;;;;;-2.96;90.78;96508.23;436208;1248;107644;-38
2023/11/28 06:00:12;;;;;;;50.20;26.30;;;;;;;-3.04;90.76;96499.83;436170;1252;97489;-39
2023/11/28 06:10:26;;;;;;;42.50;25.30;;;;;;;-3.02;90.80;96491.71;436309;1248;110587;-38
2023/11/28 06:20:32;;;;;;;45.20;25.50;;;;;;;-2.98;90.95;96482.80;436367;1253;107616;-40
2023/11/28 06:30:39;;;;;;;53.70;27.60;;;;;;;-3.00;91.27;96488.13;436245;1253;97874;-38
2023/11/28 06:40:46;;;;;;;44.60;24.20;;;;;;;-2.95;91.29;96492.55;436316;1248;110668;-40
2023/11/28 06:50:53;;;;;;;35.00;20.90;;;;;;;-2.87;91.43;96493.06;436198;1251;107974;-38
2023/11/28 07:01:00;;;;;;;56.20;28.60;;;;;;;-2.89;91.74;96490.58;436269;1253;97874;-39
2023/11/28 07:11:07;;;;;;;40.10;23.40;;;;;;;-2.93;91.68;96483.20;436341;1253;109842;-39
2023/11/28 07:21:13;;;;;;;33.70;19.70;;;;;;;-2.85;91.75;96476.52;436333;1253;108088;-39
2023/11/28 07:41:26;;;;;;;60.90;26.90;;;;;;;-2.80;91.89;96479.41;436415;1252;110711;-40
2023/11/28 07:51:33;;;;;;;37.50;21.50;;;;;;;-2.73;91.98;96485.41;436117;1250;108183;-39
2023/11/28 08:01:39;;;;;;;58.60;23.30;;;;;;;-2.69;92.15;96479.92;436222;1248;96636;-39
2023/11/28 08:11:49;;;;;;;56.10;27.10;;;;;;;-2.70;92.36;96477.37;436405;1252;109989;-40
2023/11/28 08:21:56;;;;;;;40.50;20.80;;;;;;;-2.66;92.29;96483.77;436201;1248;109330;-40
2023/11/28 08:32:03;;;;;;;38.70;20.50;;;;;;;-2.54;92.34;96482.48;436230;1253;97905;-40
2023/11/28 08:52:19;;;;;;;35.50;18.10;;;;;;;-2.43;92.31;96481.67;436503;1253;107125;-39
2023/11/28 09:02:26;;;;;;;40.30;21.20;;;;;;;-2.37;92.23;96472.27;436246;1253;108562;-40
2023/11/28 09:32:48;;;;;;;43.00;21.30;;;;;;;-2.24;92.11;96457.23;436278;1251;107323;-40
2023/11/28 09:42:57;;;;;;;37.60;18.40;;;;;;;-2.29;92.25;96450.44;436425;1253;97874;-41
2023/11/28 09:53:03;;;;;;;;;;;;;;;-2.11;91.90;96442.08;436525;1250;109271;-40
2023/11/28 10:03:10;;;;;;;50.90;23.40;;;;;;;-2.02;91.98;96431.93;436332;1253;108580;-41
2023/11/28 10:23:23;;;;;;;30.10;15.80;;;;;;;-1.93;91.60;96417.50;436409;1248;110103;-39
2023/11/28 10:33:30;;;;;;;45.90;21.20;;;;;;;-1.94;91.91;96418.55;436338;1253;109500;-39
2023/11/28 10:43:37;;;;;;;38.70;21.40;;;;;;;-2.01;92.00;96420.97;436261;1253;96930;-40
2023/11/28 10:53:46;;;;;;;25.60;15.80;;;;;;;-1.93;91.78;96415.29;436097;1248;109630;-39
2023/11/28 11:03:55;;;;;;;32.00;17.50;;;;;;;-1.91;91.92;96402.20;436254;1253;108364;-40
2023/11/28 11:14:02;;;;;;;28.20;16.40;;;;;;;-1.95;92.24;96401.02;436362;1252;97906;-40
2023/11/28 11:34:40;;;;;;;44.40;22.10;;;;;;;-1.82;92.11;96384.53;436631;1252;107362;-41
2023/11/28 11:44:48;;;;;;;27.30;16.60;;;;;;;-1.81;92.29;96382.81;436613;1253;97247;-39
2023/11/28 11:55:03;;;;;;;36.10;19.20;;;;;;;-1.75;92.23;96390.15;436322;1248;109343;-40
2023/11/28 12:05:11;;;;;;;45.20;21.10;;;;;;;-1.85;92.38;96396.02;436332;1253;107466;-40
2023/11/28 12:15:19;;;;;;;29.30;16.70;;;;;;;-1.79;92.01;96403.20;436445;1251;108131;-38
2023/11/28 12:25:27;;;;;;;38.70;20.00;;;;;;;-1.77;92.13;96403.63;436243;1253;97901;-40
2023/11/28 12:35:34;;;;;;;46.20;23.30;;;;;;;-1.77;92.27;96406.58;436375;1252;106680;-38
2023/11/28 12:57:32;;;;;;;37.10;20.40;;;;;;;-1.86;92.27;96421.73;435888;1251;111192;-39
2023/11/28 13:07:39;;;;;;;36.20;19.90;;;;;;;-1.95;92.24;96437.32;435765;1250;107632;-40
2023/11/28 13:17:57;;;;;;;23.50;16.10;;;;;;;-1.94;92.11;96442.22;436468;1250;97890;-40
2023/11/28 13:28:05;;;;;;;38.40;18.20;;;;;;;-1.88;92.35;96454.48;436427;1253;108644;-40
2023/11/28 13:48:20;;;;;;;28.60;16.30;;;;;;;-2.07;92.21;96473.62;436412;1253;109682;-39
2023/11/28 14:08:34;;;;;;;31.10;17.00;;;;;;;-2.13;92.56;96486.18;436504;1251;97874;-39
2023/11/28 14:18:42;;;;;;;31.60;16.30;;;;;;;-2.15;92.25;96506.23;436461;1247;110652;-40
2023/11/28 14:28:49;;;;;;;25.70;16.40;;;;;;;-2.16;92.36;96513.45;436459;1248;107347;-39
2023/11/28 14:38:56;;;;;;;37.80;21.60;;;;;;;-2.29;92.52;96525.23;436370;1252;97874;-38
2023/11/28 14:59:10;;;;;;;28.80;16.40;;;;;;;-2.40;92.24;96551.90;436332;1248;107804;-41
2023/11/28 15:09:17;;;;;;;30.80;17.80;;;;;;;-2.40;92.43;96561.80;436522;1262;97925;-42
2023/11/28 15:19:25;;;;;;;45.40;24.20;;;;;;;-2.46;92.53;96571.40;436473;1252;109356;-40
2023/11/28 15:29:32;;;;;;;51.90;26.50;;;;;;;-2.60;92.68;96587.13;436314;1253;107863;-39
2023/11/28 15:39:38;;;;;;;43.90;23.70;;;;;;;-2.62;92.12;96597.89;436485;1247;107218;-39
2023/11/28 15:49:44;;;;;;;40.60;21.10;;;;;;;-2.63;92.32;96613.56;436489;1253;97862;-40
2023/11/28 15:59:55;;;;;;;42.60;25.20;;;;;;;-2.62;92.46;96630.69;436367;1253;107530;-39
2023/11/28 16:10:01;;;;;;;58.40;28.70;;;;;;;-2.67;92.50;96639.55;436440;1254;97038;-40
2023/11/28 16:20:10;;;;;;;65.40;31.20;;;;;;;-2.79;92.51;96656.88;436437;1253;97865;-40
2023/11/28 16:30:16;;;;;;;;;;;;;;;-2.83;92.53;96674.25;436412;1253;108784;-40
2023/11/28 16:40:24;;;;;;;45.90;25.60;;;;;;;-2.80;92.58;96693.17;436286;1247;108951;-39
2023/11/28 16:50:31;;;;;;;46.80;24.20;;;;;;;-2.72;92.62;96703.25;436451;1247;97763;-39
2023/11/28 17:00:39;;;;;;;65.70;32.10;;;;;;;-2.75;92.80;96712.25;436445;1253;107701;-38
2023/11/28 17:10:46;;;;;;;85.90;39.80;;;;;;;-2.84;92.75;96730.26;436451;1252;97874;-40
2023/11/28 17:20:53;;;;;;;54.90;29.50;;;;;;;-2.88;92.75;96745.90;436312;1248;97858;-40
2023/11/28 17:31:00;;;;;;;65.70;31.60;;;;;;;-2.85;92.67;96764.27;436419;1252;107666;-40
2023/11/28 17:41:07;;;;;;;78.30;35.30;;;;;;;-2.83;92.80;96772.73;436509;1248;97482;-38
2023/11/28 17:51:20;;;;;;;76.00;36.50;;;;;;;-2.91;92.93;96778.91;436408;1252;109821;-38
2023/11/28 18:01:27;;;;;;;65.00;31.10;;;;;;;-2.94;92.97;96791.39;436301;1258;107908;-39
2023/11/28 18:11:35;;;;;;;67.20;32.00;;;;;;;-2.93;92.96;96817.38;436324;1248;96628;-39
2023/11/28 18:21:42;;;;;;;65.50;34.50;;;;;;;-2.91;93.26;96837.45;436829;1248;109838;-40
2023/11/28 18:31:49;;;;;;;105.40;48.10;;;;;;;-2.94;93.05;96858.03;436506;1248;109246;-39
2023/11/28 18:41:56;;;;;;;94.70;44.70;;;;;;;-3.02;93.17;96884.67;436481;1252;98024;-39
2023/11/28 18:52:01;;;;;;;90.90;41.40;;;;;;;-3.03;93.19;96905.39;436437;1253;109928;-39
2023/11/28 19:02:10;;;;;;;71.80;34.60;;;;;;;-2.99;93.10;96926.42;436421;1253;109632;-39
2023/11/28 19:12:18;;;;;;;68.70;33.80;;;;;;;-2.97;93.26;96943.91;436311;1248;97905;-41
2023/11/28 19:22:26;;;;;;;89.90;40.90;;;;;;;-2.98;93.27;96964.74;436335;1248;108065;-39
2023/11/28 19:32:32;;;;;;;69.30;33.00;;;;;;;-3.08;93.44;96974.75;436413;1253;97877;-41
2023/11/28 20:02:51;;;;;;;66.50;29.20;;;;;;;-3.10;93.38;97009.17;436368;1248;97865;-39
2023/11/28 20:23:08;;;;;;;87.90;40.70;;;;;;;-3.21;93.50;97044.02;435691;1253;97844;-39
2023/11/28 20:33:13;;;;;;;90.00;39.10;;;;;;;-3.26;93.64;97055.17;435795;1251;109690;-39
2023/11/28 20:43:21;;;;;;;71.50;36.20;;;;;;;-3.33;93.64;97058.70;435642;1251;108442;-39
2023/11/28 20:53:28;;;;;;;98.90;42.60;;;;;;;-3.42;93.76;97073.98;435942;1251;97867;-39
2023/11/28 21:03:35;;;;;;;86.50;39.30;;;;;;;-3.51;93.82;97091.64;435886;1254;110482;-38
2023/11/28 21:13:43;;;;;;;85.80;38.20;;;;;;;-3.52;93.46;97104.90;435832;1253;108145;-39
2023/11/28 21:23:49;;;;;;;70.30;33.60;;;;;;;-3.58;93.47;97118.19;436321;1248;97934;-39
2023/11/28 21:33:56;;;;;;;82.20;37.50;;;;;;;-3.61;93.50;97127.61;436258;1247;110629;-39
2023/11/28 21:44:03;;;;;;;110.90;45.20;;;;;;;-3.74;93.49;97142.93;436412;1252;108266;-39
2023/11/28 21:54:10;;;;;;;100.20;44.00;;;;;;;-3.90;93.53;97164.34;436377;1253;97902;-38
2023/11/28 22:04:18;;;;;;;72.50;36.00;;;;;;;-3.99;93.21;97181.59;436474;1253;109506;-40
2023/11/28 22:14:24;;;;;;;68.40;34.00;;;;;;;-3.98;93.16;97187.88;436466;1254;107471;-44
2023/11/28 22:24:31;;;;;;;71.30;34.50;;;;;;;-3.99;93.10;97196.38;436447;1248;97463;-40
2023/11/28 22:34:39;;;;;;;73.90;35.90;;;;;;;-4.05;92.90;97217.54;436438;1253;109027;-38
2023/11/28 22:44:47;;;;;;;98.20;43.20;;;;;;;-4.19;92.95;97243.55;436413;1253;96683;-39
2023/11/28 22:54:53;;;;;;;100.80;46.10;;;;;;;-4.33;93.16;97258.48;436462;1253;97858;-40
2023/11/28 23:05:00;;;;;;;69.80;36.50;;;;;;;-4.37;92.92;97276.03;436488;1248;110721;-39
2023/11/28 23:15:09;;;;;;;72.60;34.90;;;;;;;-4.35;93.03;97293.30;436300;1252;107238;-40
2023/11/28 23:25:16;;;;;;;74.30;35.40;;;;;;;-4.33;93.19;97308.31;436523;1248;96619;-39
2023/11/28 23:45:29;;;;;;;113.90;49.30;;;;;;;-4.44;93.45;97336.24;436449;1251;97467;-41
2023/11/28 23:55:36;;;;;;;95.10;42.20;;;;;;;-4.50;93.18;97354.45;436262;1248;97873;-39
